createdAt,value
2018-06-17T00:00:55.083Z,19.80
2018-06-17T00:03:23.688Z,19.90
2018-06-17T00:05:52.053Z,19.80
2018-06-17T00:08:20.546Z,19.70
2018-06-17T00:10:48.934Z,19.70
2018-06-17T00:13:17.435Z,19.70
2018-06-17T00:18:14.035Z,19.80
2018-06-17T00:20:42.620Z,19.80
2018-06-17T00:23:11.167Z,20.40
2018-06-17T00:25:39.604Z,19.70
2018-06-17T00:28:08.014Z,19.70
2018-06-17T00:30:36.727Z,19.60
2018-06-17T00:35:33.303Z,19.50
2018-06-17T00:38:01.781Z,19.50
2018-06-17T00:40:30.191Z,19.50
2018-06-17T00:42:58.561Z,19.40
2018-06-17T00:45:26.942Z,19.40
2018-06-17T00:47:55.358Z,19.50
2018-06-17T00:50:23.937Z,19.40
2018-06-17T00:52:52.552Z,19.50
2018-06-17T00:55:20.952Z,19.40
2018-06-17T00:57:50.395Z,19.30
2018-06-17T01:00:19.341Z,19.40
2018-06-17T01:02:47.688Z,19.40
2018-06-17T01:05:16.635Z,19.40
2018-06-17T01:07:44.896Z,19.30
2018-06-17T01:10:13.482Z,19.30
2018-06-17T01:12:42.142Z,19.30
2018-06-17T01:15:10.401Z,19.30
2018-06-17T01:17:39.037Z,19.10
2018-06-17T01:20:08.255Z,19.00
2018-06-17T01:22:36.651Z,19.20
2018-06-17T01:25:05.114Z,19.20
2018-06-17T01:27:33.594Z,19.10
2018-06-17T01:30:02.071Z,19.10
2018-06-17T01:32:30.312Z,19.20
2018-06-17T01:34:58.763Z,19.10
2018-06-17T01:39:56.076Z,19.10
2018-06-17T01:42:26.703Z,19.10
2018-06-17T01:47:23.272Z,19.10
2018-06-17T01:49:51.549Z,19.10
2018-06-17T01:52:19.919Z,18.90
2018-06-17T01:54:48.318Z,19.00
2018-06-17T01:57:16.641Z,19.10
2018-06-17T01:59:45.051Z,19.00
2018-06-17T02:02:13.357Z,19.00
2018-06-17T02:04:47.153Z,19.00
2018-06-17T02:07:20.842Z,19.00
2018-06-17T02:09:54.520Z,19.00
2018-06-17T02:12:22.934Z,19.00
2018-06-17T02:14:56.142Z,19.10
2018-06-17T02:17:25.337Z,19.00
2018-06-17T02:19:54.326Z,19.00
2018-06-17T02:22:22.905Z,18.90
2018-06-17T02:24:51.293Z,18.80
2018-06-17T02:27:20.173Z,18.70
2018-06-17T02:29:48.507Z,18.70
2018-06-17T02:32:17.001Z,18.50
2018-06-17T02:34:45.320Z,18.40
2018-06-17T02:37:13.657Z,18.40
2018-06-17T02:39:42.078Z,18.40
2018-06-17T02:44:38.932Z,18.60
2018-06-17T02:47:12.600Z,18.60
2018-06-17T02:49:43.164Z,18.70
2018-06-17T02:52:16.901Z,18.70
2018-06-17T02:54:46.284Z,18.80
2018-06-17T02:57:15.926Z,18.90
2018-06-17T02:59:44.775Z,18.80
2018-06-17T03:02:13.456Z,18.90
2018-06-17T03:04:41.748Z,18.80
2018-06-17T03:07:10.143Z,18.80
2018-06-17T03:09:38.410Z,18.80
2018-06-17T03:12:06.885Z,18.80
2018-06-17T03:14:35.151Z,18.80
2018-06-17T03:17:03.502Z,18.80
2018-06-17T03:19:31.696Z,18.70
2018-06-17T03:22:00.052Z,18.50
2018-06-17T03:24:33.677Z,18.50
2018-06-17T03:27:07.536Z,18.30
2018-06-17T03:29:41.194Z,18.30
2018-06-17T03:32:14.889Z,18.40
2018-06-17T03:34:43.289Z,18.40
2018-06-17T03:37:11.723Z,18.40
2018-06-17T03:39:40.071Z,18.40
2018-06-17T03:42:08.460Z,18.40
2018-06-17T03:44:36.856Z,18.40
2018-06-17T03:47:05.174Z,18.40
2018-06-17T03:49:33.452Z,18.40
2018-06-17T03:52:02.027Z,18.40
2018-06-17T03:54:30.349Z,18.30
2018-06-17T03:56:58.775Z,18.30
2018-06-17T03:59:27.301Z,18.30
2018-06-17T04:01:55.932Z,18.30
2018-06-17T04:04:24.641Z,18.30
2018-06-17T04:06:53.011Z,18.30
2018-06-17T04:09:21.394Z,18.20
2018-06-17T04:11:49.785Z,18.20
2018-06-17T04:14:18.153Z,18.20
2018-06-17T04:16:46.538Z,18.20
2018-06-17T04:19:14.919Z,18.00
2018-06-17T04:21:43.295Z,18.00
2018-06-17T04:24:11.795Z,18.00
2018-06-17T04:26:40.240Z,18.00
2018-06-17T04:29:08.742Z,18.00
2018-06-17T04:31:37.417Z,17.90
2018-06-17T04:34:05.802Z,17.90
2018-06-17T04:36:34.243Z,17.80
2018-06-17T04:39:02.709Z,17.90
2018-06-17T04:41:31.061Z,17.80
2018-06-17T04:43:59.633Z,17.80
2018-06-17T04:46:28.158Z,17.70
2018-06-17T04:48:56.583Z,17.70
2018-06-17T04:51:25.022Z,17.60
2018-06-17T04:53:53.370Z,17.60
2018-06-17T04:56:21.684Z,17.60
2018-06-17T04:58:50.012Z,17.60
2018-06-17T05:01:18.436Z,17.60
2018-06-17T05:03:46.848Z,17.50
2018-06-17T05:06:15.205Z,17.40
2018-06-17T05:08:43.461Z,17.40
2018-06-17T05:11:11.935Z,17.50
2018-06-17T05:13:40.530Z,17.60
2018-06-17T05:16:08.884Z,17.80
2018-06-17T05:18:37.317Z,17.80
2018-06-17T05:23:34.018Z,18.10
2018-06-17T05:26:02.982Z,18.10
2018-06-17T05:28:31.404Z,18.10
2018-06-17T05:30:59.866Z,18.10
2018-06-17T05:33:28.321Z,18.20
2018-06-17T05:35:56.800Z,18.30
2018-06-17T05:38:25.239Z,18.30
2018-06-17T05:40:53.822Z,18.40
2018-06-17T05:43:22.244Z,18.50
2018-06-17T05:48:19.703Z,18.80
2018-06-17T05:50:48.025Z,18.90
2018-06-17T05:53:16.392Z,18.90
2018-06-17T05:55:44.743Z,18.90
2018-06-17T05:58:13.056Z,18.80
2018-06-17T06:00:41.411Z,19.00
2018-06-17T06:03:09.750Z,19.00
2018-06-17T06:05:38.295Z,19.00
2018-06-17T06:08:06.955Z,18.90
2018-06-17T06:10:35.711Z,19.10
2018-06-17T06:13:04.071Z,19.20
2018-06-17T06:15:32.483Z,19.20
2018-06-17T06:18:00.858Z,19.40
2018-06-17T06:20:29.300Z,19.60
2018-06-17T06:22:57.663Z,19.50
2018-06-17T06:25:26.067Z,19.50
2018-06-17T06:27:54.373Z,19.60
2018-06-17T06:30:22.798Z,19.50
2018-06-17T06:32:58.871Z,19.60
2018-06-17T06:35:27.297Z,19.60
2018-06-17T06:37:55.684Z,19.60
2018-06-17T06:40:23.985Z,19.50
2018-06-17T06:42:52.258Z,19.50
2018-06-17T06:45:20.527Z,19.50
2018-06-17T06:47:48.773Z,19.40
2018-06-17T06:50:17.061Z,19.20
2018-06-17T06:52:45.431Z,19.30
2018-06-17T06:55:13.861Z,19.30
2018-06-17T06:57:42.292Z,19.30
2018-06-17T07:00:10.599Z,19.30
2018-06-17T07:05:24.153Z,19.20
2018-06-17T07:08:03.912Z,19.20
2018-06-17T07:10:32.410Z,19.20
2018-06-17T07:13:00.786Z,19.30
2018-06-17T07:15:40.275Z,19.30
2018-06-17T07:18:20.066Z,19.30
2018-06-17T07:20:48.415Z,19.20
2018-06-17T07:23:16.925Z,19.40
2018-06-17T07:26:55.501Z,19.40
2018-06-17T07:29:38.682Z,19.80
2018-06-17T07:32:07.117Z,19.80
2018-06-17T07:34:35.635Z,20.00
2018-06-17T07:37:04.293Z,19.90
2018-06-17T07:41:42.293Z,20.00
2018-06-17T07:44:10.643Z,20.10
2018-06-17T07:46:39.012Z,20.10
2018-06-17T07:49:29.057Z,20.00
2018-06-17T07:52:09.824Z,19.90
2018-06-17T07:54:39.315Z,19.90
2018-06-17T07:57:08.199Z,20.00
2018-06-17T07:59:36.606Z,19.90
2018-06-17T08:04:34.267Z,20.30
2018-06-17T08:07:02.766Z,20.30
2018-06-17T08:09:31.144Z,20.30
2018-06-17T08:12:00.058Z,20.30
2018-06-17T08:14:28.524Z,20.30
2018-06-17T08:16:57.275Z,20.50
2018-06-17T08:19:26.853Z,20.60
2018-06-17T08:21:56.193Z,20.60
2018-06-17T08:24:24.578Z,20.50
2018-06-17T08:26:53.053Z,20.70
2018-06-17T08:29:21.447Z,20.90
2018-06-17T08:31:49.929Z,20.70
2018-06-17T08:34:18.314Z,20.40
2018-06-17T08:36:46.710Z,20.40
2018-06-17T08:39:16.278Z,20.60
2018-06-17T08:41:44.759Z,21.00
2018-06-17T08:44:14.069Z,21.10
2018-06-17T08:46:42.809Z,21.10
2018-06-17T08:49:11.479Z,21.10
2018-06-17T08:54:08.237Z,20.90
2018-06-17T08:56:36.587Z,21.00
2018-06-17T08:59:04.905Z,21.10
2018-06-17T09:01:33.191Z,20.90
2018-06-17T09:04:01.512Z,21.10
2018-06-17T09:06:29.886Z,21.20
2018-06-17T09:08:58.542Z,21.20
2018-06-17T09:11:26.836Z,21.30
2018-06-17T09:13:55.584Z,21.30
2018-06-17T09:16:24.512Z,21.50
2018-06-17T09:18:53.120Z,21.40
2018-06-17T09:21:21.600Z,21.30
2018-06-17T09:23:49.923Z,21.40
2018-06-17T09:26:18.213Z,21.50
2018-06-17T09:28:46.464Z,21.50
2018-06-17T09:31:14.766Z,21.10
2018-06-17T09:33:43.011Z,21.20
2018-06-17T09:36:11.361Z,21.20
2018-06-17T09:38:39.618Z,21.30
2018-06-17T09:41:08.119Z,21.50
2018-06-17T09:43:36.398Z,21.50
2018-06-17T09:46:04.774Z,21.50
2018-06-17T09:48:33.170Z,21.20
2018-06-17T09:53:29.469Z,21.10
2018-06-17T09:55:57.792Z,21.20
2018-06-17T09:58:26.105Z,21.30
2018-06-17T10:03:22.684Z,21.30
2018-06-17T10:05:51.425Z,21.30
2018-06-17T10:08:19.899Z,21.30
2018-06-17T10:10:50.726Z,21.40
2018-06-17T10:13:19.705Z,21.40
2018-06-17T10:15:48.585Z,21.30
2018-06-17T10:18:17.884Z,21.70
2018-06-17T10:20:46.174Z,21.70
2018-06-17T10:23:14.505Z,21.90
2018-06-17T10:25:43.153Z,21.80
2018-06-17T10:28:12.174Z,21.90
2018-06-17T10:30:41.983Z,21.80
2018-06-17T10:33:10.884Z,21.70
2018-06-17T10:35:39.990Z,21.70
2018-06-17T10:38:08.440Z,21.80
2018-06-17T10:40:36.767Z,22.00
2018-06-17T10:43:11.454Z,22.00
2018-06-17T10:45:40.055Z,22.00
2018-06-17T10:50:36.728Z,22.30
2018-06-17T10:53:05.072Z,22.30
2018-06-17T10:55:34.487Z,22.10
2018-06-17T10:58:03.003Z,22.10
2018-06-17T11:00:31.464Z,22.10
2018-06-17T11:03:00.136Z,22.20
2018-06-17T11:05:28.561Z,22.10
2018-06-17T11:10:24.905Z,22.50
2018-06-17T11:12:53.228Z,22.70
2018-06-17T11:15:21.678Z,22.70
2018-06-17T11:17:50.406Z,22.80
2018-06-17T11:20:18.625Z,22.90
2018-06-17T11:22:46.946Z,22.90
2018-06-17T11:25:15.392Z,23.20
2018-06-17T11:27:43.805Z,23.20
2018-06-17T11:30:12.158Z,22.80
2018-06-17T11:32:40.508Z,22.80
2018-06-17T11:35:08.743Z,23.10
2018-06-17T11:37:37.146Z,22.70
2018-06-17T11:40:05.436Z,22.60
2018-06-17T11:45:02.316Z,22.80
2018-06-17T11:47:32.098Z,22.70
2018-06-17T11:52:28.414Z,22.90
2018-06-17T11:54:56.800Z,23.10
2018-06-17T11:57:25.281Z,23.10
2018-06-17T12:02:21.558Z,23.10
2018-06-17T12:04:49.841Z,23.10
2018-06-17T12:07:18.332Z,23.10
2018-06-17T12:09:46.698Z,23.20
2018-06-17T12:12:15.058Z,23.30
2018-06-17T12:14:43.359Z,23.00
2018-06-17T12:17:11.756Z,22.90
2018-06-17T12:19:40.190Z,23.10
2018-06-17T12:22:09.787Z,23.20
2018-06-17T12:24:38.191Z,23.10
2018-06-17T12:27:06.483Z,23.10
2018-06-17T12:29:34.719Z,23.30
2018-06-17T12:32:03.062Z,23.30
2018-06-17T12:34:31.495Z,23.30
2018-06-17T12:36:59.863Z,23.20
2018-06-17T12:39:28.426Z,23.30
2018-06-17T12:41:56.815Z,23.30
2018-06-17T12:44:25.213Z,23.60
2018-06-17T12:46:53.508Z,23.40
2018-06-17T12:49:21.865Z,23.50
2018-06-17T12:51:50.192Z,23.50
2018-06-17T12:54:18.405Z,23.60
2018-06-17T12:56:46.666Z,21.60
2018-06-17T12:59:14.970Z,23.20
2018-06-17T13:01:43.335Z,23.10
2018-06-17T13:04:11.713Z,23.00
2018-06-17T13:06:40.080Z,23.00
2018-06-17T13:11:37.791Z,23.10
2018-06-17T13:14:06.262Z,23.10
2018-06-17T13:16:34.554Z,22.90
2018-06-17T13:19:03.199Z,22.80
2018-06-17T13:21:31.590Z,22.80
2018-06-17T13:23:59.975Z,22.80
2018-06-17T13:31:24.485Z,23.00
2018-06-17T13:33:52.828Z,23.00
2018-06-17T13:36:21.160Z,23.10
2018-06-17T13:38:49.435Z,23.10
2018-06-17T13:41:17.910Z,23.00
2018-06-17T13:43:46.513Z,23.00
2018-06-17T13:46:15.175Z,23.00
2018-06-17T13:48:43.655Z,22.90
2018-06-17T13:51:12.166Z,23.40
2018-06-17T13:53:40.451Z,23.40
2018-06-17T13:56:08.856Z,23.40
2018-06-17T13:58:37.152Z,24.30
2018-06-17T14:01:05.555Z,25.40
2018-06-17T14:03:33.917Z,25.60
2018-06-17T14:06:02.144Z,25.30
2018-06-17T14:08:30.402Z,23.80
2018-06-17T14:10:58.767Z,23.80
2018-06-17T14:13:27.136Z,23.50
2018-06-17T14:15:55.435Z,23.20
2018-06-17T14:18:23.910Z,23.00
2018-06-17T14:20:52.293Z,23.00
2018-06-17T14:23:20.663Z,23.10
2018-06-17T14:25:48.951Z,23.20
2018-06-17T14:28:17.303Z,23.20
2018-06-17T14:30:45.882Z,23.40
2018-06-17T14:33:14.159Z,23.30
2018-06-17T14:35:42.548Z,23.10
2018-06-17T14:38:10.963Z,23.10
2018-06-17T14:40:44.520Z,23.00
2018-06-17T14:43:18.134Z,22.90
2018-06-17T14:45:51.650Z,22.80
2018-06-17T14:48:25.591Z,22.50
2018-06-17T14:50:59.335Z,22.50
2018-06-17T14:53:27.718Z,22.40
2018-06-17T14:55:55.969Z,22.40
2018-06-17T14:58:24.461Z,22.40
2018-06-17T15:00:52.780Z,22.50
2018-06-17T15:03:21.120Z,22.50
2018-06-17T15:05:49.457Z,22.50
2018-06-17T15:08:17.826Z,22.80
2018-06-17T15:10:46.057Z,23.20
2018-06-17T15:13:14.349Z,24.60
2018-06-17T15:15:42.619Z,24.80
2018-06-17T15:18:11.007Z,24.70
2018-06-17T15:20:39.346Z,24.70
2018-06-17T15:23:07.565Z,24.70
2018-06-17T15:25:35.863Z,24.70
2018-06-17T15:28:04.246Z,24.40
2018-06-17T15:30:32.502Z,24.10
2018-06-17T15:33:06.383Z,23.90
2018-06-17T15:35:40.110Z,23.60
2018-06-17T15:38:13.793Z,23.40
2018-06-17T15:40:47.739Z,23.20
2018-06-17T15:43:16.159Z,23.40
2018-06-17T15:45:44.452Z,23.80
2018-06-17T15:48:12.654Z,24.30
2018-06-17T15:50:40.982Z,23.70
2018-06-17T15:53:09.188Z,23.60
2018-06-17T15:55:37.482Z,23.40
2018-06-17T15:58:05.713Z,23.10
2018-06-17T16:00:33.946Z,23.00
2018-06-17T16:03:02.367Z,22.70
2018-06-17T16:05:30.974Z,22.50
2018-06-17T16:07:59.260Z,22.40
2018-06-17T16:10:27.638Z,22.40
2018-06-17T16:13:01.339Z,22.20
2018-06-17T16:15:35.065Z,22.20
2018-06-17T16:18:08.728Z,22.20
2018-06-17T16:20:42.342Z,22.20
2018-06-17T16:23:10.690Z,22.10
2018-06-17T16:25:39.011Z,21.90
2018-06-17T16:28:07.299Z,21.60
2018-06-17T16:30:35.734Z,21.50
2018-06-17T16:33:04.099Z,21.40
2018-06-17T16:35:32.520Z,21.40
2018-06-17T16:38:00.798Z,21.40
2018-06-17T16:40:29.282Z,21.40
2018-06-17T16:42:57.672Z,21.40
2018-06-17T16:45:26.095Z,21.40
2018-06-17T16:47:54.491Z,21.40
2018-06-17T16:50:22.767Z,21.40
2018-06-17T16:52:56.449Z,21.40
2018-06-17T16:55:30.219Z,21.30
2018-06-17T17:00:32.614Z,21.40
2018-06-17T17:03:00.972Z,21.40
2018-06-17T17:05:29.423Z,21.40
2018-06-17T17:07:57.676Z,21.50
2018-06-17T17:10:26.217Z,21.50
2018-06-17T17:12:54.590Z,21.70
2018-06-17T17:15:22.908Z,22.80
2018-06-17T17:17:51.335Z,22.60
2018-06-17T17:23:02.880Z,22.40
2018-06-17T17:25:31.243Z,22.20
2018-06-17T17:30:27.455Z,22.00
2018-06-17T17:33:01.186Z,21.90
2018-06-17T17:35:34.961Z,21.70
2018-06-17T17:38:08.708Z,21.70
2018-06-17T17:40:38.310Z,21.60
2018-06-17T17:43:06.863Z,21.50
2018-06-17T17:48:04.330Z,21.40
2018-06-17T17:50:32.747Z,21.40
2018-06-17T17:53:01.416Z,21.40
2018-06-17T17:55:29.691Z,21.50
2018-06-17T17:57:58.085Z,21.50
2018-06-17T18:00:26.655Z,21.90
2018-06-17T18:02:54.915Z,21.70
2018-06-17T18:05:23.103Z,21.70
2018-06-17T18:10:19.931Z,21.40
2018-06-17T18:12:48.431Z,21.40
2018-06-17T18:17:46.111Z,21.40
2018-06-17T18:20:14.754Z,21.20
2018-06-17T18:22:43.140Z,21.20
2018-06-17T18:25:17.497Z,21.10
2018-06-17T18:27:51.129Z,21.00
2018-06-17T18:30:24.765Z,21.00
2018-06-17T18:32:58.401Z,20.90
2018-06-17T18:35:32.455Z,20.90
2018-06-17T18:38:00.802Z,20.80
2018-06-17T18:40:29.238Z,20.80
2018-06-17T18:42:57.754Z,20.70
2018-06-17T18:45:26.126Z,20.60
2018-06-17T18:47:54.586Z,20.60
2018-06-17T18:50:22.985Z,20.60
2018-06-17T18:52:51.338Z,20.50
2018-06-17T18:57:47.728Z,20.40
2018-06-17T19:00:16.159Z,20.40
2018-06-17T19:02:44.638Z,20.40
2018-06-17T19:05:13.278Z,20.30
2018-06-17T19:11:13.519Z,20.30
2018-06-17T19:13:47.367Z,20.30
2018-06-17T19:16:21.198Z,20.20
2018-06-17T19:18:49.518Z,20.20
2018-06-17T19:21:17.841Z,20.10
2018-06-17T19:23:46.425Z,20.00
2018-06-17T19:26:14.767Z,20.00
2018-06-17T19:28:43.120Z,19.90
2018-06-17T19:31:11.463Z,19.90
2018-06-17T19:33:39.884Z,19.90
2018-06-17T19:36:08.193Z,19.90
2018-06-17T19:38:36.573Z,19.90
2018-06-17T19:41:04.877Z,19.90
2018-06-17T19:43:33.243Z,19.70
2018-06-17T19:46:02.486Z,19.70
2018-06-17T19:48:30.753Z,19.70
2018-06-17T19:51:04.387Z,19.60
2018-06-17T19:53:38.025Z,19.60
2018-06-17T19:56:11.726Z,19.50
2018-06-17T19:58:45.438Z,19.40
2018-06-17T20:01:13.831Z,19.30
2018-06-17T20:03:42.160Z,19.10
2018-06-17T20:06:10.554Z,19.10
2018-06-17T20:08:38.854Z,19.10
2018-06-17T20:11:07.126Z,19.80
2018-06-17T20:16:03.610Z,18.80
2018-06-17T20:18:32.027Z,18.80
2018-06-17T20:21:00.313Z,18.70
2018-06-17T20:23:28.626Z,18.70
2018-06-17T20:25:57.147Z,18.70
2018-06-17T20:28:25.971Z,18.60
2018-06-17T20:30:55.631Z,18.50
2018-06-17T20:33:29.281Z,18.50
2018-06-17T20:36:03.039Z,18.50
2018-06-17T20:38:36.810Z,18.40
2018-06-17T20:41:10.693Z,18.30
2018-06-17T20:43:46.363Z,18.30
2018-06-17T20:46:14.855Z,18.20
2018-06-17T20:48:43.280Z,18.20
2018-06-17T20:51:11.639Z,18.10
2018-06-17T20:53:40.114Z,18.10
2018-06-17T20:56:08.754Z,18.00
2018-06-17T20:58:37.298Z,17.90
2018-06-17T21:01:05.738Z,17.90
2018-06-17T21:03:34.194Z,17.90
2018-06-17T21:06:02.704Z,17.90
2018-06-17T21:08:31.052Z,17.80
2018-06-17T21:10:59.608Z,17.90
2018-06-17T21:13:27.989Z,17.90
2018-06-17T21:15:56.300Z,17.80
2018-06-17T21:18:30.396Z,17.80
2018-06-17T21:21:04.126Z,17.80
2018-06-17T21:23:37.769Z,17.80
2018-06-17T21:26:11.432Z,17.70
2018-06-17T21:28:40.005Z,17.70
2018-06-17T21:31:08.367Z,17.70
2018-06-17T21:33:36.706Z,17.70
2018-06-17T21:36:05.002Z,17.70
2018-06-17T21:38:33.444Z,17.60
2018-06-17T21:41:01.806Z,17.60
2018-06-17T21:43:30.130Z,17.60
2018-06-17T21:45:58.545Z,17.70
2018-06-17T21:48:26.954Z,17.60
2018-06-17T21:50:55.444Z,17.60
2018-06-17T21:53:23.819Z,17.60
2018-06-17T21:55:52.170Z,17.60
2018-06-17T21:58:25.994Z,17.60
2018-06-17T22:00:54.570Z,17.60
2018-06-17T22:03:23.033Z,17.60
2018-06-17T22:05:51.413Z,17.60
2018-06-17T22:08:25.235Z,17.60
2018-06-17T22:10:58.989Z,17.60
2018-06-17T22:13:31.615Z,17.50
2018-06-17T22:16:05.571Z,17.50
2018-06-17T22:18:34.012Z,17.50
2018-06-17T22:21:02.532Z,17.50
2018-06-17T22:23:30.934Z,17.50
2018-06-17T22:25:59.381Z,17.50
2018-06-17T22:28:27.925Z,17.50
2018-06-17T22:30:56.316Z,17.40
2018-06-17T22:33:24.593Z,17.40
2018-06-17T22:35:52.936Z,17.40
2018-06-17T22:38:21.208Z,17.30
2018-06-17T22:40:49.563Z,17.30
2018-06-17T22:43:17.858Z,17.30
2018-06-17T22:45:46.123Z,17.20
2018-06-17T22:48:15.191Z,17.10
2018-06-17T22:50:43.556Z,17.10
2018-06-17T22:53:23.291Z,17.00
2018-06-17T22:55:51.643Z,17.00
2018-06-17T22:58:25.158Z,17.00
2018-06-17T23:00:58.852Z,16.90
2018-06-17T23:03:32.805Z,16.90
2018-06-17T23:06:06.508Z,16.90
2018-06-17T23:08:40.258Z,16.90
2018-06-17T23:11:08.544Z,16.90
2018-06-17T23:13:36.973Z,16.80
2018-06-17T23:16:05.557Z,16.80
2018-06-17T23:18:33.807Z,16.70
2018-06-17T23:21:02.235Z,16.70
2018-06-17T23:25:58.514Z,16.60
2018-06-17T23:28:27.015Z,16.70
2018-06-17T23:30:55.335Z,16.60
2018-06-17T23:33:23.733Z,16.60
2018-06-17T23:35:52.126Z,16.60
2018-06-17T23:38:20.402Z,16.60
2018-06-17T23:40:48.764Z,16.60
2018-06-17T23:43:17.071Z,16.60
2018-06-17T23:45:51.030Z,16.60
2018-06-17T23:48:24.670Z,16.50
2018-06-17T23:50:58.717Z,16.50
2018-06-17T23:53:32.425Z,16.50
2018-06-17T23:56:07.223Z,16.50
2018-06-17T23:58:36.046Z,16.50
